createdAt,value
2023-01-01T00:00:32.626Z,172.15
2023-01-01T00:03:01.071Z,173.68
2023-01-01T00:05:29.554Z,146.38
2023-01-01T00:08:04.240Z,180.65
2023-01-01T00:10:34.173Z,184.00
2023-01-01T00:13:02.775Z,195.15
2023-01-01T00:15:35.176Z,170.23
2023-01-01T00:18:03.664Z,170.70
2023-01-01T00:20:35.365Z,198.98
2023-01-01T00:23:05.597Z,193.07
2023-01-01T00:25:34.100Z,187.45
2023-01-01T00:28:03.143Z,161.07
2023-01-01T00:30:32.952Z,153.98
2023-01-01T00:33:01.374Z,153.25
2023-01-01T00:35:29.916Z,154.23
2023-01-01T00:37:58.397Z,153.23
2023-01-01T00:40:26.862Z,148.70
2023-01-01T00:42:55.348Z,152.25
2023-01-01T00:45:23.971Z,124.30
2023-01-01T00:47:55.345Z,136.93
2023-01-01T00:50:24.847Z,141.82
2023-01-01T00:52:53.309Z,133.50
2023-01-01T00:55:21.966Z,110.80
2023-01-01T00:57:50.437Z,99.85
2023-01-01T01:00:20.356Z,100.80
2023-01-01T01:02:49.029Z,106.43
2023-01-01T01:05:19.270Z,93.00
2023-01-01T01:07:47.773Z,98.65
2023-01-01T01:10:17.046Z,107.63
2023-01-01T01:12:45.559Z,105.38
2023-01-01T01:15:14.284Z,116.13
2023-01-01T01:17:42.764Z,118.63
2023-01-01T01:20:12.872Z,114.45
2023-01-01T01:22:42.720Z,105.55
2023-01-01T01:25:11.909Z,103.45
2023-01-01T01:27:40.356Z,100.38
2023-01-01T01:30:10.705Z,89.03
2023-01-01T01:32:39.235Z,91.43
2023-01-01T01:35:08.810Z,94.15
2023-01-01T01:37:37.353Z,94.95
2023-01-01T01:40:09.454Z,84.22
2023-01-01T01:42:37.959Z,81.57
2023-01-01T01:45:11.600Z,80.82
2023-01-01T01:47:47.963Z,75.35
2023-01-01T01:50:23.505Z,71.55
2023-01-01T01:53:04.389Z,64.95
2023-01-01T01:55:38.735Z,60.05
2023-01-01T01:58:09.266Z,61.28
2023-01-01T02:00:38.174Z,71.53
2023-01-01T02:03:09.571Z,64.13
2023-01-01T02:05:40.341Z,65.85
2023-01-01T02:08:09.954Z,62.60
2023-01-01T02:10:40.218Z,63.10
2023-01-01T02:13:08.956Z,63.65
2023-01-01T02:15:45.637Z,60.83
2023-01-01T02:18:19.427Z,64.68
2023-01-01T02:20:55.553Z,68.38
2023-01-01T02:24:16.400Z,69.32
2023-01-01T02:26:55.771Z,57.13
2023-01-01T02:29:45.615Z,56.97
2023-01-01T02:32:21.233Z,59.47
2023-01-01T02:34:54.802Z,54.03
2023-01-01T02:37:25.565Z,54.22
2023-01-01T02:39:59.680Z,52.10
2023-01-01T02:42:30.559Z,48.50
2023-01-01T02:45:01.354Z,54.10
2023-01-01T02:47:29.834Z,46.80
2023-01-01T02:50:07.383Z,45.97
2023-01-01T02:52:57.418Z,42.28
2023-01-01T02:55:38.210Z,46.03
2023-01-01T02:58:35.383Z,48.40
2023-01-01T03:01:13.811Z,46.20
2023-01-01T03:03:50.937Z,45.22
2023-01-01T03:06:33.591Z,45.85
2023-01-01T03:09:13.661Z,41.70
2023-01-01T03:11:53.728Z,45.60
2023-01-01T03:14:30.234Z,46.05
2023-01-01T03:17:07.797Z,40.63
2023-01-01T03:19:40.535Z,46.75
2023-01-01T03:22:12.142Z,45.13
2023-01-01T03:24:44.624Z,40.83
2023-01-01T03:27:18.059Z,41.88
2023-01-01T03:29:49.026Z,39.88
2023-01-01T03:32:46.491Z,40.97
2023-01-01T03:35:17.049Z,31.42
2023-01-01T03:37:50.226Z,35.17
2023-01-01T03:40:21.874Z,33.42
2023-01-01T03:42:56.275Z,32.10
2023-01-01T03:45:30.664Z,35.92
2023-01-01T03:48:02.074Z,32.92
2023-01-01T03:50:42.097Z,33.67
2023-01-01T03:53:20.463Z,27.65
2023-01-01T03:55:53.567Z,27.95
2023-01-01T03:58:32.797Z,23.80
2023-01-01T04:01:07.828Z,24.85
2023-01-01T04:03:39.170Z,21.30
2023-01-01T04:06:08.817Z,23.20
2023-01-01T04:08:37.833Z,22.88
2023-01-01T04:11:28.952Z,22.50
2023-01-01T04:13:57.436Z,23.38
2023-01-01T04:16:25.968Z,23.25
2023-01-01T04:18:55.814Z,22.75
2023-01-01T04:21:24.256Z,21.67
2023-01-01T04:23:52.893Z,22.90
2023-01-01T04:26:21.353Z,24.10
2023-01-01T04:28:49.789Z,20.70
2023-01-01T04:31:18.205Z,22.25
2023-01-01T04:33:46.629Z,22.25
2023-01-01T04:36:16.424Z,21.38
2023-01-01T04:38:44.840Z,22.00
2023-01-01T04:41:13.227Z,21.80
2023-01-01T04:43:41.648Z,22.40
2023-01-01T04:46:11.056Z,19.00
2023-01-01T04:48:39.555Z,20.27
2023-01-01T04:51:08.176Z,20.35
2023-01-01T04:53:38.088Z,19.00
2023-01-01T04:56:07.607Z,18.23
2023-01-01T04:58:37.599Z,21.60
2023-01-01T05:01:07.144Z,18.63
2023-01-01T05:03:35.852Z,18.42
2023-01-01T05:06:07.275Z,16.65
2023-01-01T05:08:40.255Z,18.90
2023-01-01T05:11:12.073Z,17.98
2023-01-01T05:13:43.528Z,16.48
2023-01-01T05:16:14.689Z,17.98
2023-01-01T05:18:44.103Z,16.90
2023-01-01T05:21:16.761Z,17.70
2023-01-01T05:23:46.790Z,18.25
2023-01-01T05:26:17.780Z,17.25
2023-01-01T05:28:46.911Z,21.92
2023-01-01T05:31:18.269Z,21.35
2023-01-01T05:33:46.784Z,19.85
2023-01-01T05:36:18.913Z,19.73
2023-01-01T05:38:48.977Z,19.98
2023-01-01T05:41:20.261Z,21.23
2023-01-01T05:43:49.220Z,20.20
2023-01-01T05:46:21.223Z,17.73
2023-01-01T05:48:50.369Z,19.23
2023-01-01T05:51:22.109Z,19.92
2023-01-01T05:53:52.712Z,17.58
2023-01-01T05:56:21.407Z,19.58
2023-01-01T05:58:49.860Z,19.52
2023-01-01T06:01:21.535Z,18.83
2023-01-01T06:03:50.745Z,18.45
2023-01-01T06:06:21.837Z,18.77
2023-01-01T06:08:56.901Z,19.45
2023-01-01T06:11:25.797Z,18.67
2023-01-01T06:13:55.260Z,19.50
2023-01-01T06:16:24.424Z,17.65
2023-01-01T06:18:53.523Z,18.77
2023-01-01T06:21:25.258Z,18.48
2023-01-01T06:23:58.001Z,18.00
2023-01-01T06:26:29.628Z,19.00
2023-01-01T06:28:59.205Z,18.67
2023-01-01T06:31:28.822Z,18.13
2023-01-01T06:33:57.574Z,18.63
2023-01-01T06:36:27.173Z,15.55
2023-01-01T06:38:58.687Z,18.13
2023-01-01T06:41:29.505Z,19.00
2023-01-01T06:43:58.919Z,18.52
2023-01-01T06:46:30.351Z,15.70
2023-01-01T06:49:00.264Z,15.13
2023-01-01T06:51:31.377Z,16.15
2023-01-01T06:54:03.301Z,17.40
2023-01-01T06:56:32.379Z,14.00
2023-01-01T06:59:01.252Z,15.32
2023-01-01T07:01:31.968Z,17.15
2023-01-01T07:04:02.913Z,17.10
2023-01-01T07:06:33.799Z,17.70
2023-01-01T07:09:03.792Z,18.38
2023-01-01T07:11:32.559Z,14.90
2023-01-01T07:14:01.080Z,16.60
2023-01-01T07:16:29.805Z,17.38
2023-01-01T07:18:58.485Z,15.23
2023-01-01T07:21:31.582Z,15.60
2023-01-01T07:24:03.753Z,16.27
2023-01-01T07:26:34.207Z,16.40
2023-01-01T07:29:07.349Z,17.00
2023-01-01T07:31:36.967Z,16.00
2023-01-01T07:34:05.773Z,12.68
2023-01-01T07:36:34.461Z,17.33
2023-01-01T07:39:04.257Z,15.68
2023-01-01T07:41:32.698Z,13.45
2023-01-01T07:44:01.339Z,16.00
2023-01-01T07:46:30.313Z,16.52
2023-01-01T07:48:58.843Z,17.63
2023-01-01T07:51:27.803Z,18.88
2023-01-01T07:54:00.679Z,17.65
2023-01-01T07:56:34.751Z,16.98
2023-01-01T07:59:03.347Z,18.55
2023-01-01T08:01:31.926Z,17.15
2023-01-01T08:04:00.451Z,18.45
2023-01-01T08:06:28.893Z,17.85
2023-01-01T08:08:57.438Z,15.25
2023-01-01T08:11:25.865Z,14.27
2023-01-01T08:13:55.653Z,16.10
2023-01-01T08:16:24.166Z,17.23
2023-01-01T08:18:52.643Z,17.35
2023-01-01T08:21:21.029Z,19.10
2023-01-01T08:23:49.411Z,16.45
2023-01-01T08:26:19.643Z,15.80
2023-01-01T08:28:52.134Z,15.15
2023-01-01T08:31:26.942Z,15.43
2023-01-01T08:33:55.453Z,14.65
2023-01-01T08:36:24.084Z,15.77
2023-01-01T08:38:52.511Z,18.48
2023-01-01T08:41:20.974Z,21.15
2023-01-01T08:43:49.363Z,18.02
2023-01-01T08:46:17.926Z,18.63
2023-01-01T08:48:47.743Z,18.95
2023-01-01T08:51:16.238Z,19.13
2023-01-01T08:53:50.635Z,18.02
2023-01-01T08:56:20.477Z,19.25
2023-01-01T08:58:49.495Z,18.92
2023-01-01T09:01:21.620Z,19.35
2023-01-01T09:03:51.693Z,18.95
2023-01-01T09:06:20.234Z,19.15
2023-01-01T09:08:48.771Z,20.25
2023-01-01T09:11:25.283Z,16.10
2023-01-01T09:13:54.050Z,19.13
2023-01-01T09:16:23.768Z,19.70
2023-01-01T09:18:53.653Z,20.98
2023-01-01T09:21:22.459Z,17.85
2023-01-01T09:23:50.957Z,22.17
2023-01-01T09:26:19.370Z,17.08
2023-01-01T09:28:47.785Z,15.73
2023-01-01T09:31:16.247Z,17.95
2023-01-01T09:33:44.759Z,18.65
2023-01-01T09:36:16.586Z,17.15
2023-01-01T09:38:49.406Z,17.65
2023-01-01T09:41:27.201Z,18.85
2023-01-01T09:44:05.678Z,18.30
2023-01-01T09:46:34.277Z,17.65
2023-01-01T09:49:08.064Z,14.20
2023-01-01T09:51:49.947Z,13.20
2023-01-01T09:54:30.016Z,14.63
2023-01-01T09:57:01.417Z,15.27
2023-01-01T09:59:31.131Z,13.68
2023-01-01T10:02:11.860Z,11.13
2023-01-01T10:04:59.072Z,11.93
2023-01-01T10:07:37.082Z,13.57
2023-01-01T10:10:22.207Z,11.10
2023-01-01T10:13:00.652Z,12.32
2023-01-01T10:15:35.052Z,10.40
2023-01-01T10:18:15.049Z,11.93
2023-01-01T10:20:49.951Z,9.50
2023-01-01T10:23:26.118Z,11.40
2023-01-01T10:25:58.336Z,13.00
2023-01-01T10:28:34.116Z,13.88
2023-01-01T10:31:17.119Z,12.50
2023-01-01T10:33:47.536Z,10.80
2023-01-01T10:36:20.626Z,11.32
2023-01-01T10:38:52.023Z,13.27
2023-01-01T10:41:20.487Z,13.40
2023-01-01T10:43:49.566Z,10.82
2023-01-01T10:46:29.571Z,12.68
2023-01-01T10:49:12.647Z,12.88
2023-01-01T10:51:47.105Z,11.35
2023-01-01T10:54:36.477Z,12.70
2023-01-01T10:57:16.904Z,12.07
2023-01-01T10:59:53.502Z,11.70
2023-01-01T11:02:25.646Z,11.27
2023-01-01T11:05:14.980Z,11.20
2023-01-01T11:07:46.823Z,12.35
2023-01-01T11:10:22.185Z,11.75
2023-01-01T11:13:08.665Z,11.77
2023-01-01T11:15:41.420Z,10.35
2023-01-01T11:18:15.285Z,9.73
2023-01-01T11:20:44.073Z,9.00
2023-01-01T11:23:33.234Z,12.65
2023-01-01T11:26:08.206Z,11.63
2023-01-01T11:28:37.663Z,9.90
2023-01-01T11:31:18.729Z,11.35
2023-01-01T11:33:51.373Z,11.05
2023-01-01T11:36:25.578Z,10.23
2023-01-01T11:39:14.384Z,10.48
2023-01-01T11:41:47.969Z,10.07
2023-01-01T11:44:31.351Z,9.55
2023-01-01T11:47:00.431Z,10.90
2023-01-01T11:49:31.738Z,8.23
2023-01-01T11:52:00.685Z,8.65
2023-01-01T11:54:36.012Z,7.85
2023-01-01T11:57:13.348Z,8.73
2023-01-01T11:59:50.757Z,8.45
2023-01-01T12:02:31.671Z,6.90
2023-01-01T12:05:11.801Z,8.10
2023-01-01T12:07:42.582Z,7.55
2023-01-01T12:10:21.605Z,7.85
2023-01-01T12:12:58.831Z,7.32
2023-01-01T12:15:33.572Z,8.25
2023-01-01T12:18:12.459Z,7.30
2023-01-01T12:20:46.813Z,7.95
2023-01-01T12:23:18.192Z,7.82
2023-01-01T12:25:57.107Z,7.90
2023-01-01T12:28:39.900Z,8.15
2023-01-01T12:31:19.686Z,8.32
2023-01-01T12:34:11.811Z,6.68
2023-01-01T12:36:50.363Z,7.25
2023-01-01T12:40:16.085Z,7.65
2023-01-01T12:43:01.640Z,7.10
2023-01-01T12:46:13.865Z,8.15
2023-01-01T12:49:37.147Z,8.45
2023-01-01T12:52:27.013Z,7.88
2023-01-01T12:55:44.318Z,7.75
2023-01-01T12:58:18.981Z,8.18
2023-01-01T13:00:57.189Z,6.95
2023-01-01T13:03:30.655Z,8.82
2023-01-01T13:06:01.628Z,7.85
2023-01-01T13:08:30.086Z,8.30
2023-01-01T13:11:01.273Z,9.45
2023-01-01T13:13:29.828Z,7.68
2023-01-01T13:15:59.920Z,7.32
2023-01-01T13:18:33.546Z,8.45
2023-01-01T13:21:08.854Z,8.55
2023-01-01T13:23:48.676Z,8.25
2023-01-01T13:26:42.856Z,9.30
2023-01-01T13:29:43.491Z,7.60
2023-01-01T13:32:15.321Z,9.43
2023-01-01T13:35:03.469Z,9.90
2023-01-01T13:37:49.128Z,7.32
2023-01-01T13:40:58.893Z,8.60
2023-01-01T13:43:33.485Z,10.57
2023-01-01T13:46:14.260Z,10.77
2023-01-01T13:49:21.743Z,9.93
2023-01-01T13:52:26.649Z,8.50
2023-01-01T13:55:51.399Z,10.82
2023-01-01T13:59:26.304Z,9.65
2023-01-01T14:02:02.910Z,7.72
2023-01-01T14:04:43.938Z,9.38
2023-01-01T14:07:52.864Z,10.05
2023-01-01T14:10:28.999Z,8.82
2023-01-01T14:13:15.102Z,9.15
2023-01-01T14:15:55.061Z,11.55
2023-01-01T14:18:32.559Z,9.55
2023-01-01T14:21:02.772Z,9.80
2023-01-01T14:23:35.052Z,9.40
2023-01-01T14:26:09.786Z,10.10
2023-01-01T14:28:39.152Z,10.80
2023-01-01T14:31:20.457Z,11.63
2023-01-01T14:33:49.897Z,11.45
2023-01-01T14:36:24.541Z,9.85
2023-01-01T14:38:54.965Z,12.20
2023-01-01T14:41:29.253Z,13.20
2023-01-01T14:44:04.538Z,12.73
2023-01-01T14:46:33.725Z,14.95
2023-01-01T14:49:09.471Z,14.02
2023-01-01T14:51:44.837Z,14.05
2023-01-01T14:54:20.716Z,12.43
2023-01-01T14:56:51.203Z,13.35
2023-01-01T14:59:26.400Z,16.85
2023-01-01T15:02:03.546Z,16.70
2023-01-01T15:04:32.378Z,18.15
2023-01-01T15:07:02.935Z,19.50
2023-01-01T15:09:33.567Z,16.77
2023-01-01T15:12:02.690Z,16.33
2023-01-01T15:14:34.789Z,20.83
2023-01-01T15:17:05.149Z,12.30
2023-01-01T15:19:34.990Z,11.90
2023-01-01T15:22:11.838Z,12.82
2023-01-01T15:24:40.997Z,11.45
2023-01-01T15:27:22.216Z,13.02
2023-01-01T15:29:51.539Z,11.70
2023-01-01T15:32:28.452Z,17.20
2023-01-01T15:34:59.949Z,16.92
2023-01-01T15:37:38.079Z,16.00
2023-01-01T15:40:35.946Z,15.35
2023-01-01T15:43:22.401Z,14.50
2023-01-01T15:45:58.293Z,14.35
2023-01-01T15:48:37.609Z,14.05
2023-01-01T15:51:18.068Z,13.63
2023-01-01T15:53:57.846Z,17.77
2023-01-01T15:56:29.582Z,19.33
2023-01-01T15:59:08.770Z,14.55
2023-01-01T16:01:41.752Z,14.13
2023-01-01T16:04:19.556Z,16.50
2023-01-01T16:06:55.488Z,16.35
2023-01-01T16:09:25.459Z,12.55
2023-01-01T16:11:55.991Z,16.00
2023-01-01T16:14:24.600Z,14.75
2023-01-01T16:16:57.447Z,18.65
2023-01-01T16:19:26.697Z,15.25
2023-01-01T16:21:55.164Z,13.23
2023-01-01T16:24:25.264Z,16.27
2023-01-01T16:26:53.833Z,15.60
2023-01-01T16:29:22.324Z,15.45
2023-01-01T16:31:52.971Z,15.20
2023-01-01T16:34:21.597Z,16.05
2023-01-01T16:36:50.086Z,18.92
2023-01-01T16:39:18.591Z,15.55
2023-01-01T16:41:48.445Z,14.23
2023-01-01T16:44:17.680Z,15.68
2023-01-01T16:46:46.315Z,14.13
2023-01-01T16:49:14.915Z,17.38
2023-01-01T16:51:44.256Z,16.10
2023-01-01T16:54:13.202Z,19.25
2023-01-01T16:56:41.641Z,16.33
2023-01-01T16:59:11.576Z,11.50
2023-01-01T17:01:40.220Z,15.45
2023-01-01T17:04:09.071Z,13.05
2023-01-01T17:06:39.874Z,16.48
2023-01-01T17:09:09.147Z,15.02
2023-01-01T17:11:39.391Z,14.48
2023-01-01T17:14:08.542Z,14.00
2023-01-01T17:16:39.887Z,15.77
2023-01-01T17:19:14.923Z,14.27
2023-01-01T17:21:45.898Z,19.17
2023-01-01T17:24:15.101Z,15.35
2023-01-01T17:26:43.667Z,16.80
2023-01-01T17:29:12.608Z,14.13
2023-01-01T17:31:44.009Z,14.15
2023-01-01T17:34:14.716Z,14.20
2023-01-01T17:36:45.330Z,16.25
2023-01-01T17:39:15.687Z,15.52
2023-01-01T17:41:45.780Z,18.15
2023-01-01T17:44:14.428Z,14.98
2023-01-01T17:46:44.856Z,18.08
2023-01-01T17:49:15.583Z,15.48
2023-01-01T17:51:44.042Z,15.18
2023-01-01T17:54:13.828Z,12.18
2023-01-01T17:56:43.225Z,14.68
2023-01-01T17:59:12.533Z,14.50
2023-01-01T18:01:42.275Z,12.77
2023-01-01T18:04:12.673Z,13.35
2023-01-01T18:06:44.257Z,15.70
2023-01-01T18:09:16.508Z,15.02
2023-01-01T18:11:45.514Z,13.95
2023-01-01T18:14:19.589Z,13.48
2023-01-01T18:16:52.369Z,16.42
2023-01-01T18:19:22.959Z,18.38
2023-01-01T18:21:52.207Z,18.17
2023-01-01T18:24:21.601Z,17.33
2023-01-01T18:26:50.244Z,19.35
2023-01-01T18:29:19.261Z,17.42
2023-01-01T18:31:48.956Z,16.67
2023-01-01T18:34:17.957Z,15.38
2023-01-01T18:36:47.864Z,14.85
2023-01-01T18:39:22.973Z,14.15
2023-01-01T18:42:10.181Z,14.82
2023-01-01T18:44:39.168Z,13.00
2023-01-01T18:47:17.590Z,14.00
2023-01-01T18:49:50.678Z,11.65
2023-01-01T18:52:27.247Z,14.65
2023-01-01T18:55:15.084Z,12.25
2023-01-01T18:57:47.278Z,13.20
2023-01-01T19:00:22.852Z,14.02
2023-01-01T19:03:00.074Z,13.32
2023-01-01T19:05:33.355Z,13.93
2023-01-01T19:08:16.104Z,15.43
2023-01-01T19:10:51.858Z,15.55
2023-01-01T19:13:24.321Z,14.48
2023-01-01T19:15:59.043Z,14.77
2023-01-01T19:18:32.319Z,15.25
2023-01-01T19:21:21.202Z,14.15
2023-01-01T19:23:56.586Z,13.77
2023-01-01T19:26:29.910Z,14.27
2023-01-01T19:29:03.780Z,15.18
2023-01-01T19:31:32.423Z,16.90
2023-01-01T19:34:01.054Z,15.82
2023-01-01T19:36:30.271Z,15.18
2023-01-01T19:39:00.932Z,17.60
2023-01-01T19:41:29.417Z,15.23
2023-01-01T19:43:58.005Z,15.85
2023-01-01T19:46:26.626Z,16.23
2023-01-01T19:48:55.431Z,15.98
2023-01-01T19:51:24.910Z,14.75
2023-01-01T19:53:56.653Z,19.10
2023-01-01T19:56:27.646Z,16.10
2023-01-01T19:58:58.123Z,17.00
2023-01-01T20:01:28.151Z,18.45
2023-01-01T20:03:59.355Z,16.67
2023-01-01T20:06:31.051Z,17.90
2023-01-01T20:09:06.337Z,15.70
2023-01-01T20:11:38.261Z,16.90
2023-01-01T20:14:08.530Z,14.98
2023-01-01T20:16:40.862Z,15.48
2023-01-01T20:19:11.881Z,13.93
2023-01-01T20:21:59.178Z,16.38
2023-01-01T20:24:31.904Z,15.13
2023-01-01T20:27:03.627Z,12.55
2023-01-01T20:29:44.360Z,12.00
2023-01-01T20:32:16.127Z,12.90
2023-01-01T20:34:46.440Z,13.32
2023-01-01T20:37:33.306Z,14.23
2023-01-01T20:40:03.485Z,14.32
2023-01-01T20:42:35.265Z,12.18
2023-01-01T20:45:05.719Z,14.35
2023-01-01T20:47:37.127Z,13.07
2023-01-01T20:50:10.180Z,15.02
2023-01-01T20:52:42.062Z,11.95
2023-01-01T20:55:15.311Z,11.93
2023-01-01T20:57:46.558Z,13.77
2023-01-01T21:00:17.650Z,11.65
2023-01-01T21:02:49.302Z,12.05
2023-01-01T21:05:19.604Z,12.00
2023-01-01T21:07:49.861Z,12.57
2023-01-01T21:10:20.168Z,10.52
2023-01-01T21:12:55.512Z,13.13
2023-01-01T21:15:25.164Z,13.82
2023-01-01T21:17:56.876Z,12.70
2023-01-01T21:20:38.771Z,11.77
2023-01-01T21:23:15.325Z,13.82
2023-01-01T21:25:51.683Z,12.02
2023-01-01T21:28:22.729Z,15.00
2023-01-01T21:30:54.228Z,12.80
2023-01-01T21:33:28.205Z,12.10
2023-01-01T21:35:56.956Z,16.25
2023-01-01T21:38:27.827Z,13.32
2023-01-01T21:40:58.829Z,12.80
2023-01-01T21:43:35.333Z,14.23
2023-01-01T21:46:35.076Z,12.65
2023-01-01T21:49:14.367Z,13.18
2023-01-01T21:51:50.893Z,13.50
2023-01-01T21:54:26.209Z,12.98
2023-01-01T21:57:00.894Z,14.32
2023-01-01T21:59:39.659Z,12.40
2023-01-01T22:02:39.623Z,14.07
2023-01-01T22:05:31.307Z,13.70
2023-01-01T22:08:00.264Z,10.60
2023-01-01T22:10:35.837Z,11.85
2023-01-01T22:13:14.690Z,13.25
2023-01-01T22:15:47.108Z,14.40
2023-01-01T22:18:27.065Z,13.02
2023-01-01T22:20:56.623Z,13.15
2023-01-01T22:23:47.679Z,12.10
2023-01-01T22:26:20.549Z,12.82
2023-01-01T22:28:56.828Z,11.10
2023-01-01T22:31:33.414Z,11.60
2023-01-01T22:34:06.697Z,11.35
2023-01-01T22:36:36.823Z,12.93
2023-01-01T22:39:21.946Z,9.95
2023-01-01T22:41:51.411Z,11.65
2023-01-01T22:44:19.956Z,11.30
2023-01-01T22:46:50.227Z,11.40
2023-01-01T22:49:23.392Z,9.85
2023-01-01T22:51:56.279Z,10.60
2023-01-01T22:54:24.790Z,9.50
2023-01-01T22:56:53.205Z,9.68
2023-01-01T22:59:21.774Z,10.25
2023-01-01T23:01:51.664Z,10.60
2023-01-01T23:04:20.235Z,11.98
2023-01-01T23:06:48.863Z,9.52
2023-01-01T23:09:17.380Z,9.77
2023-01-01T23:11:45.999Z,9.95
2023-01-01T23:14:36.928Z,7.32
2023-01-01T23:17:09.320Z,9.10
2023-01-01T23:19:37.848Z,7.65
2023-01-01T23:22:06.491Z,8.07
2023-01-01T23:24:35.624Z,7.55
2023-01-01T23:27:04.919Z,7.90
2023-01-01T23:29:34.612Z,7.95
2023-01-01T23:32:04.413Z,8.63
2023-01-01T23:34:34.895Z,8.07
2023-01-01T23:37:03.406Z,7.40
2023-01-01T23:39:31.883Z,7.90
2023-01-01T23:42:00.577Z,7.25
2023-01-01T23:44:29.167Z,7.85
2023-01-01T23:47:00.349Z,6.82
2023-01-01T23:49:29.701Z,7.00
2023-01-01T23:52:00.472Z,8.32
2023-01-01T23:54:28.955Z,7.57
2023-01-01T23:56:57.383Z,6.72
2023-01-01T23:59:25.881Z,6.45
